sensor_id;sensor_type;location;lat;lon;timestamp;temperature;humidity
51619;DHT22;38518;53.164;5.430;2022-12-18T00:01:35;-2.90;99.90
51619;DHT22;38518;53.164;5.430;2022-12-18T00:04:05;-3.10;99.90
51619;DHT22;38518;53.164;5.430;2022-12-18T00:06:32;-0.80;99.90
51619;DHT22;38518;53.164;5.430;2022-12-18T00:08:58;-1.50;99.90
51619;DHT22;38518;53.164;5.430;2022-12-18T00:11:27;-2.90;99.90
51619;DHT22;38518;53.164;5.430;2022-12-18T00:13:55;-2.60;99.90
51619;DHT22;38518;53.164;5.430;2022-12-18T00:16:22;-2.60;99.90
51619;DHT22;38518;53.164;5.430;2022-12-18T00:18:51;-2.90;99.90
51619;DHT22;38518;53.164;5.430;2022-12-18T00:21:18;-1.40;99.90
51619;DHT22;38518;53.164;5.430;2022-12-18T00:23:45;-1.20;99.90
51619;DHT22;38518;53.164;5.430;2022-12-18T00:26:20;-1.70;99.90
51619;DHT22;38518;53.164;5.430;2022-12-18T00:28:47;-2.70;99.90
51619;DHT22;38518;53.164;5.430;2022-12-18T00:31:16;-3.00;99.90
51619;DHT22;38518;53.164;5.430;2022-12-18T00:33:42;-3.00;99.90
51619;DHT22;38518;53.164;5.430;2022-12-18T00:36:14;-0.90;99.90
51619;DHT22;38518;53.164;5.430;2022-12-18T00:38:40;-2.10;99.90
51619;DHT22;38518;53.164;5.430;2022-12-18T00:41:07;-2.90;99.90
51619;DHT22;38518;53.164;5.430;2022-12-18T00:43:34;-2.70;99.90
51619;DHT22;38518;53.164;5.430;2022-12-18T00:45:59;-2.30;99.90
51619;DHT22;38518;53.164;5.430;2022-12-18T00:48:25;-1.10;99.90
51619;DHT22;38518;53.164;5.430;2022-12-18T00:50:51;-2.80;99.90
51619;DHT22;38518;53.164;5.430;2022-12-18T00:53:17;-0.90;99.90
51619;DHT22;38518;53.164;5.430;2022-12-18T00:55:44;-1.60;99.90
51619;DHT22;38518;53.164;5.430;2022-12-18T00:58:11;-3.00;99.90
51619;DHT22;38518;53.164;5.430;2022-12-18T01:00:37;-2.70;99.90
51619;DHT22;38518;53.164;5.430;2022-12-18T01:03:04;-0.80;99.90
51619;DHT22;38518;53.164;5.430;2022-12-18T01:05:30;-1.10;99.90
51619;DHT22;38518;53.164;5.430;2022-12-18T01:07:56;-1.00;99.90
51619;DHT22;38518;53.164;5.430;2022-12-18T01:10:23;-2.10;99.90
51619;DHT22;38518;53.164;5.430;2022-12-18T01:12:48;-1.20;99.90
51619;DHT22;38518;53.164;5.430;2022-12-18T01:15:15;-0.70;99.90
51619;DHT22;38518;53.164;5.430;2022-12-18T01:17:41;-2.30;99.90
51619;DHT22;38518;53.164;5.430;2022-12-18T01:20:08;-1.50;99.90
51619;DHT22;38518;53.164;5.430;2022-12-18T01:22:35;-2.40;99.90
51619;DHT22;38518;53.164;5.430;2022-12-18T01:25:01;-0.60;99.90
51619;DHT22;38518;53.164;5.430;2022-12-18T01:27:27;-2.50;99.90
51619;DHT22;38518;53.164;5.430;2022-12-18T01:29:53;-0.40;99.90
51619;DHT22;38518;53.164;5.430;2022-12-18T01:32:20;-0.80;99.90
51619;DHT22;38518;53.164;5.430;2022-12-18T01:34:45;-4.60;99.90
51619;DHT22;38518;53.164;5.430;2022-12-18T01:37:11;-0.70;99.90
51619;DHT22;38518;53.164;5.430;2022-12-18T01:39:37;-2.80;99.90
51619;DHT22;38518;53.164;5.430;2022-12-18T01:42:03;-2.70;99.90
51619;DHT22;38518;53.164;5.430;2022-12-18T01:44:53;-0.80;99.90
51619;DHT22;38518;53.164;5.430;2022-12-18T01:49:51;-2.90;99.90
51619;DHT22;38518;53.164;5.430;2022-12-18T01:52:17;-0.30;99.90
51619;DHT22;38518;53.164;5.430;2022-12-18T01:54:45;-1.20;99.90
51619;DHT22;38518;53.164;5.430;2022-12-18T01:57:11;-3.80;99.90
51619;DHT22;38518;53.164;5.430;2022-12-18T01:59:39;-3.00;99.90
51619;DHT22;38518;53.164;5.430;2022-12-18T02:02:07;-1.90;99.90
51619;DHT22;38518;53.164;5.430;2022-12-18T02:04:33;-2.70;99.90
51619;DHT22;38518;53.164;5.430;2022-12-18T02:07:23;-3.10;99.90
51619;DHT22;38518;53.164;5.430;2022-12-18T02:10:22;-3.10;99.90
51619;DHT22;38518;53.164;5.430;2022-12-18T02:18:17;-3.30;99.90
51619;DHT22;38518;53.164;5.430;2022-12-18T02:23:47;-4.90;99.90
51619;DHT22;38518;53.164;5.430;2022-12-18T02:26:44;-3.40;99.90
51619;DHT22;38518;53.164;5.430;2022-12-18T02:29:17;-3.40;99.90
51619;DHT22;38518;53.164;5.430;2022-12-18T02:31:51;-5.20;99.90
51619;DHT22;38518;53.164;5.430;2022-12-18T02:34:18;-3.80;99.90
51619;DHT22;38518;53.164;5.430;2022-12-18T02:36:46;-3.30;99.90
51619;DHT22;38518;53.164;5.430;2022-12-18T02:39:14;-1.60;99.90
51619;DHT22;38518;53.164;5.430;2022-12-18T02:41:41;-3.50;99.90
51619;DHT22;38518;53.164;5.430;2022-12-18T02:44:10;-3.90;99.90
51619;DHT22;38518;53.164;5.430;2022-12-18T02:46:40;-4.00;99.90
51619;DHT22;38518;53.164;5.430;2022-12-18T02:49:15;-3.80;99.90
51619;DHT22;38518;53.164;5.430;2022-12-18T02:52:38;-3.50;99.90
51619;DHT22;38518;53.164;5.430;2022-12-18T02:54:57;-2.20;99.90
51619;DHT22;38518;53.164;5.430;2022-12-18T02:58:25;-3.90;99.90
51619;DHT22;38518;53.164;5.430;2022-12-18T03:00:18;-3.90;99.90
51619;DHT22;38518;53.164;5.430;2022-12-18T03:03:10;-3.90;99.90
51619;DHT22;38518;53.164;5.430;2022-12-18T03:05:51;-4.00;99.90
51619;DHT22;38518;53.164;5.430;2022-12-18T03:08:28;-4.00;99.90
51619;DHT22;38518;53.164;5.430;2022-12-18T03:11:07;-4.00;99.90
51619;DHT22;38518;53.164;5.430;2022-12-18T03:13:43;-4.20;99.90
51619;DHT22;38518;53.164;5.430;2022-12-18T03:16:12;-3.80;99.90
51619;DHT22;38518;53.164;5.430;2022-12-18T03:21:14;-3.20;99.90
51619;DHT22;38518;53.164;5.430;2022-12-18T03:23:45;-1.20;99.90
51619;DHT22;38518;53.164;5.430;2022-12-18T03:26:19;-3.40;99.90
51619;DHT22;38518;53.164;5.430;2022-12-18T03:28:52;-3.40;99.90
51619;DHT22;38518;53.164;5.430;2022-12-18T03:31:22;-2.00;99.90
51619;DHT22;38518;53.164;5.430;2022-12-18T03:33:58;-3.60;99.90
51619;DHT22;38518;53.164;5.430;2022-12-18T03:36:25;-2.10;99.90
51619;DHT22;38518;53.164;5.430;2022-12-18T03:38:51;-3.40;99.90
51619;DHT22;38518;53.164;5.430;2022-12-18T03:41:33;-3.30;99.90
51619;DHT22;38518;53.164;5.430;2022-12-18T03:44:20;-1.70;99.90
51619;DHT22;38518;53.164;5.430;2022-12-18T03:47:08;-3.20;99.90
51619;DHT22;38518;53.164;5.430;2022-12-18T03:49:40;-1.20;99.90
51619;DHT22;38518;53.164;5.430;2022-12-18T03:55:00;-0.80;99.90
51619;DHT22;38518;53.164;5.430;2022-12-18T03:57:29;-1.30;99.90
51619;DHT22;38518;53.164;5.430;2022-12-18T03:59:59;-2.10;99.90
51619;DHT22;38518;53.164;5.430;2022-12-18T04:02:26;-3.60;99.90
51619;DHT22;38518;53.164;5.430;2022-12-18T04:04:57;-1.40;99.90
51619;DHT22;38518;53.164;5.430;2022-12-18T04:07:24;-3.70;99.90
51619;DHT22;38518;53.164;5.430;2022-12-18T04:09:53;-3.80;99.90
51619;DHT22;38518;53.164;5.430;2022-12-18T04:12:20;-4.30;99.90
51619;DHT22;38518;53.164;5.430;2022-12-18T04:14:45;-4.20;99.90
51619;DHT22;38518;53.164;5.430;2022-12-18T04:17:11;-3.70;99.90
51619;DHT22;38518;53.164;5.430;2022-12-18T04:19:37;-1.90;99.90
51619;DHT22;38518;53.164;5.430;2022-12-18T04:22:03;-4.60;99.90
51619;DHT22;38518;53.164;5.430;2022-12-18T04:24:28;-4.30;99.90
51619;DHT22;38518;53.164;5.430;2022-12-18T04:26:54;-0.80;99.90
51619;DHT22;38518;53.164;5.430;2022-12-18T04:29:20;-3.50;99.90
51619;DHT22;38518;53.164;5.430;2022-12-18T04:31:46;-4.40;99.90
51619;DHT22;38518;53.164;5.430;2022-12-18T04:34:11;-3.20;99.90
51619;DHT22;38518;53.164;5.430;2022-12-18T04:36:37;-3.80;99.90
51619;DHT22;38518;53.164;5.430;2022-12-18T04:39:03;-1.30;99.90
51619;DHT22;38518;53.164;5.430;2022-12-18T04:41:28;-4.50;99.90
51619;DHT22;38518;53.164;5.430;2022-12-18T04:43:54;-4.40;99.90
51619;DHT22;38518;53.164;5.430;2022-12-18T04:46:20;-4.30;99.90
51619;DHT22;38518;53.164;5.430;2022-12-18T04:48:46;-2.50;99.90
51619;DHT22;38518;53.164;5.430;2022-12-18T04:51:12;-3.30;99.90
51619;DHT22;38518;53.164;5.430;2022-12-18T04:53:38;-4.30;99.90
51619;DHT22;38518;53.164;5.430;2022-12-18T04:56:06;-3.10;99.90
51619;DHT22;38518;53.164;5.430;2022-12-18T04:58:32;-4.40;99.90
51619;DHT22;38518;53.164;5.430;2022-12-18T05:00:58;-4.50;99.90
51619;DHT22;38518;53.164;5.430;2022-12-18T05:03:23;-3.20;99.90
51619;DHT22;38518;53.164;5.430;2022-12-18T05:05:50;-2.20;99.90
51619;DHT22;38518;53.164;5.430;2022-12-18T05:08:17;-3.80;99.90
51619;DHT22;38518;53.164;5.430;2022-12-18T05:10:42;-4.80;99.90
51619;DHT22;38518;53.164;5.430;2022-12-18T05:13:09;-4.40;99.90
51619;DHT22;38518;53.164;5.430;2022-12-18T05:15:35;-1.60;99.90
51619;DHT22;38518;53.164;5.430;2022-12-18T05:18:01;-4.40;99.90
51619;DHT22;38518;53.164;5.430;2022-12-18T05:20:27;-3.80;99.90
51619;DHT22;38518;53.164;5.430;2022-12-18T05:22:54;-2.90;99.90
51619;DHT22;38518;53.164;5.430;2022-12-18T05:25:20;-3.70;99.90
51619;DHT22;38518;53.164;5.430;2022-12-18T05:27:46;-4.80;99.90
51619;DHT22;38518;53.164;5.430;2022-12-18T05:30:13;-2.80;99.90
51619;DHT22;38518;53.164;5.430;2022-12-18T05:32:39;-4.90;99.90
51619;DHT22;38518;53.164;5.430;2022-12-18T05:35:06;-4.00;99.90
51619;DHT22;38518;53.164;5.430;2022-12-18T05:37:33;-4.90;99.90
51619;DHT22;38518;53.164;5.430;2022-12-18T05:39:59;-3.40;99.90
51619;DHT22;38518;53.164;5.430;2022-12-18T05:42:24;-2.80;99.90
51619;DHT22;38518;53.164;5.430;2022-12-18T05:44:50;-5.00;99.90
51619;DHT22;38518;53.164;5.430;2022-12-18T05:47:16;-2.30;99.90
51619;DHT22;38518;53.164;5.430;2022-12-18T05:49:41;-5.00;99.90
51619;DHT22;38518;53.164;5.430;2022-12-18T05:52:07;-5.00;99.90
51619;DHT22;38518;53.164;5.430;2022-12-18T05:54:33;-5.50;99.90
51619;DHT22;38518;53.164;5.430;2022-12-18T05:56:59;-4.80;99.90
51619;DHT22;38518;53.164;5.430;2022-12-18T05:59:24;-4.10;99.90
51619;DHT22;38518;53.164;5.430;2022-12-18T06:04:17;-5.20;99.90
51619;DHT22;38518;53.164;5.430;2022-12-18T06:06:42;-3.90;99.90
51619;DHT22;38518;53.164;5.430;2022-12-18T06:09:08;-5.30;99.90
51619;DHT22;38518;53.164;5.430;2022-12-18T06:11:38;-5.40;99.90
51619;DHT22;38518;53.164;5.430;2022-12-18T06:14:05;-4.00;99.90
51619;DHT22;38518;53.164;5.430;2022-12-18T06:16:32;-3.80;99.90
51619;DHT22;38518;53.164;5.430;2022-12-18T06:18:58;-5.30;99.90
51619;DHT22;38518;53.164;5.430;2022-12-18T06:21:24;-5.60;93.30
51619;DHT22;38518;53.164;5.430;2022-12-18T06:23:50;-5.90;93.30
51619;DHT22;38518;53.164;5.430;2022-12-18T06:26:15;-5.90;60.00
51619;DHT22;38518;53.164;5.430;2022-12-18T06:28:41;-5.10;55.30
51619;DHT22;38518;53.164;5.430;2022-12-18T06:31:08;-5.80;30.00
51619;DHT22;38518;53.164;5.430;2022-12-18T06:33:34;-6.90;59.70
51619;DHT22;38518;53.164;5.430;2022-12-18T06:38:27;-3.90;48.30
51619;DHT22;38518;53.164;5.430;2022-12-18T06:40:53;-6.00;10.80
51619;DHT22;38518;53.164;5.430;2022-12-18T06:43:19;-6.00;12.50
51619;DHT22;38518;53.164;5.430;2022-12-18T06:45:44;-6.10;13.90
51619;DHT22;38518;53.164;5.430;2022-12-18T06:48:11;-4.50;3.90
51619;DHT22;38518;53.164;5.430;2022-12-18T06:50:37;-6.40;3.70
51619;DHT22;38518;53.164;5.430;2022-12-18T06:53:07;-6.10;1.00
51619;DHT22;38518;53.164;5.430;2022-12-18T06:55:32;-4.10;1.00
51619;DHT22;38518;53.164;5.430;2022-12-18T06:57:58;-6.20;1.00
51619;DHT22;38518;53.164;5.430;2022-12-18T07:00:24;-5.90;18.50
51619;DHT22;38518;53.164;5.430;2022-12-18T07:02:50;-6.20;1.00
51619;DHT22;38518;53.164;5.430;2022-12-18T07:05:16;-6.20;1.00
51619;DHT22;38518;53.164;5.430;2022-12-18T07:07:41;-6.00;1.00
51619;DHT22;38518;53.164;5.430;2022-12-18T07:10:07;-5.30;1.00
51619;DHT22;38518;53.164;5.430;2022-12-18T07:12:33;-6.00;1.00
51619;DHT22;38518;53.164;5.430;2022-12-18T07:14:59;-5.90;1.00
51619;DHT22;38518;53.164;5.430;2022-12-18T07:17:25;-6.50;1.00
51619;DHT22;38518;53.164;5.430;2022-12-18T07:22:16;-6.40;1.00
51619;DHT22;38518;53.164;5.430;2022-12-18T07:24:42;-6.30;1.00
51619;DHT22;38518;53.164;5.430;2022-12-18T07:27:08;-5.50;1.00
51619;DHT22;38518;53.164;5.430;2022-12-18T07:29:34;-6.20;1.00
51619;DHT22;38518;53.164;5.430;2022-12-18T07:31:59;-6.00;1.00
51619;DHT22;38518;53.164;5.430;2022-12-18T07:34:25;-6.30;1.00
51619;DHT22;38518;53.164;5.430;2022-12-18T07:36:51;-4.20;1.00
51619;DHT22;38518;53.164;5.430;2022-12-18T07:39:17;-6.20;1.00
51619;DHT22;38518;53.164;5.430;2022-12-18T07:41:42;-6.10;1.00
51619;DHT22;38518;53.164;5.430;2022-12-18T07:44:12;-6.20;1.00
51619;DHT22;38518;53.164;5.430;2022-12-18T07:46:38;-6.00;1.00
51619;DHT22;38518;53.164;5.430;2022-12-18T07:51:30;-6.00;1.00
51619;DHT22;38518;53.164;5.430;2022-12-18T07:53:56;-6.10;1.00
51619;DHT22;38518;53.164;5.430;2022-12-18T07:56:22;-6.70;1.00
51619;DHT22;38518;53.164;5.430;2022-12-18T07:58:48;-4.40;1.00
51619;DHT22;38518;53.164;5.430;2022-12-18T08:01:14;-6.00;1.00
51619;DHT22;38518;53.164;5.430;2022-12-18T08:03:40;-5.90;1.00
51619;DHT22;38518;53.164;5.430;2022-12-18T08:06:08;-3.50;1.00
51619;DHT22;38518;53.164;5.430;2022-12-18T08:08:35;-5.40;1.00
51619;DHT22;38518;53.164;5.430;2022-12-18T08:11:01;-6.00;1.00
51619;DHT22;38518;53.164;5.430;2022-12-18T08:13:27;-5.90;1.00
51619;DHT22;38518;53.164;5.430;2022-12-18T08:16:01;-6.00;1.00
51619;DHT22;38518;53.164;5.430;2022-12-18T08:18:28;-5.80;1.00
51619;DHT22;38518;53.164;5.430;2022-12-18T08:20:54;-5.60;1.00
51619;DHT22;38518;53.164;5.430;2022-12-18T08:23:20;-5.90;1.00
51619;DHT22;38518;53.164;5.430;2022-12-18T08:25:46;-7.00;1.00
51619;DHT22;38518;53.164;5.430;2022-12-18T08:28:12;-4.60;1.00
51619;DHT22;38518;53.164;5.430;2022-12-18T08:30:38;-4.80;1.00
51619;DHT22;38518;53.164;5.430;2022-12-18T08:33:04;-4.20;1.00
51619;DHT22;38518;53.164;5.430;2022-12-18T08:35:29;-5.70;1.00
51619;DHT22;38518;53.164;5.430;2022-12-18T08:37:55;-5.70;1.00
51619;DHT22;38518;53.164;5.430;2022-12-18T08:40:21;-3.80;1.00
51619;DHT22;38518;53.164;5.430;2022-12-18T08:42:47;-5.10;1.00
51619;DHT22;38518;53.164;5.430;2022-12-18T08:45:31;-3.80;1.00
51619;DHT22;38518;53.164;5.430;2022-12-18T08:47:56;-3.10;1.00
51619;DHT22;38518;53.164;5.430;2022-12-18T08:55:14;-5.00;1.00
51619;DHT22;38518;53.164;5.430;2022-12-18T08:57:40;-4.90;1.00
51619;DHT22;38518;53.164;5.430;2022-12-18T09:00:06;-5.00;1.00
51619;DHT22;38518;53.164;5.430;2022-12-18T09:02:33;-4.70;1.00
51619;DHT22;38518;53.164;5.430;2022-12-18T09:04:58;-4.70;1.00
51619;DHT22;38518;53.164;5.430;2022-12-18T09:07:24;-2.60;1.00
51619;DHT22;38518;53.164;5.430;2022-12-18T09:09:50;-2.60;1.00
51619;DHT22;38518;53.164;5.430;2022-12-18T09:12:15;-4.50;1.00
51619;DHT22;38518;53.164;5.430;2022-12-18T09:17:07;-4.30;1.00
51619;DHT22;38518;53.164;5.430;2022-12-18T09:19:33;-3.00;99.90
51619;DHT22;38518;53.164;5.430;2022-12-18T09:21:59;-4.20;99.90
51619;DHT22;38518;53.164;5.430;2022-12-18T09:24:24;-4.00;99.90
51619;DHT22;38518;53.164;5.430;2022-12-18T09:26:53;-3.90;99.90
51619;DHT22;38518;53.164;5.430;2022-12-18T09:29:20;-2.50;99.90
51619;DHT22;38518;53.164;5.430;2022-12-18T09:31:46;-3.70;99.90
51619;DHT22;38518;53.164;5.430;2022-12-18T09:36:38;-3.50;99.90
51619;DHT22;38518;53.164;5.430;2022-12-18T09:46:53;-2.50;99.90
51619;DHT22;38518;53.164;5.430;2022-12-18T09:49:23;-1.20;99.90
51619;DHT22;38518;53.164;5.430;2022-12-18T09:54:41;-0.10;99.90
51619;DHT22;38518;53.164;5.430;2022-12-18T09:57:14;-2.80;99.90
51619;DHT22;38518;53.164;5.430;2022-12-18T09:59:42;-0.40;99.90
51619;DHT22;38518;53.164;5.430;2022-12-18T10:02:21;-2.40;99.90
51619;DHT22;38518;53.164;5.430;2022-12-18T10:07:35;-2.70;99.90
51619;DHT22;38518;53.164;5.430;2022-12-18T10:10:32;-2.50;99.90
51619;DHT22;38518;53.164;5.430;2022-12-18T10:19:01;-3.10;99.90
51619;DHT22;38518;53.164;5.430;2022-12-18T10:21:45;-2.00;99.90
51619;DHT22;38518;53.164;5.430;2022-12-18T10:27:18;-2.60;99.90
51619;DHT22;38518;53.164;5.430;2022-12-18T10:29:47;-0.60;99.90
51619;DHT22;38518;53.164;5.430;2022-12-18T10:32:21;-0.90;99.90
51619;DHT22;38518;53.164;5.430;2022-12-18T10:34:48;-1.40;99.90
51619;DHT22;38518;53.164;5.430;2022-12-18T10:37:17;-2.50;99.90
51619;DHT22;38518;53.164;5.430;2022-12-18T10:39:44;-2.80;99.90
51619;DHT22;38518;53.164;5.430;2022-12-18T10:42:16;-2.30;99.90
51619;DHT22;38518;53.164;5.430;2022-12-18T10:44:43;-0.70;99.90
51619;DHT22;38518;53.164;5.430;2022-12-18T10:47:14;-1.70;99.90
51619;DHT22;38518;53.164;5.430;2022-12-18T10:49:49;-0.90;99.90
51619;DHT22;38518;53.164;5.430;2022-12-18T10:52:23;-2.50;99.90
51619;DHT22;38518;53.164;5.430;2022-12-18T10:54:55;-2.70;99.90
51619;DHT22;38518;53.164;5.430;2022-12-18T10:57:31;-2.50;99.90
51619;DHT22;38518;53.164;5.430;2022-12-18T10:59:58;-2.40;99.90
51619;DHT22;38518;53.164;5.430;2022-12-18T11:02:35;-1.20;99.90
51619;DHT22;38518;53.164;5.430;2022-12-18T11:05:02;-0.90;99.90
51619;DHT22;38518;53.164;5.430;2022-12-18T11:07:49;-1.90;99.90
51619;DHT22;38518;53.164;5.430;2022-12-18T11:10:21;-1.60;99.90
51619;DHT22;38518;53.164;5.430;2022-12-18T11:12:47;-2.30;99.90
51619;DHT22;38518;53.164;5.430;2022-12-18T11:15:20;-0.40;99.90
51619;DHT22;38518;53.164;5.430;2022-12-18T11:17:49;-2.20;99.90
51619;DHT22;38518;53.164;5.430;2022-12-18T11:20:34;-1.30;99.90
51619;DHT22;38518;53.164;5.430;2022-12-18T11:23:04;-1.30;99.90
51619;DHT22;38518;53.164;5.430;2022-12-18T11:25:31;-2.10;99.90
51619;DHT22;38518;53.164;5.430;2022-12-18T11:28:43;-0.10;99.90
51619;DHT22;38518;53.164;5.430;2022-12-18T11:36:46;-3.00;99.90
51619;DHT22;38518;53.164;5.430;2022-12-18T11:39:20;-2.10;99.90
51619;DHT22;38518;53.164;5.430;2022-12-18T11:41:55;-2.10;99.90
51619;DHT22;38518;53.164;5.430;2022-12-18T11:44:48;-2.10;99.90
51619;DHT22;38518;53.164;5.430;2022-12-18T11:50:25;-2.00;99.90
51619;DHT22;38518;53.164;5.430;2022-12-18T11:52:51;0.30;99.90
51619;DHT22;38518;53.164;5.430;2022-12-18T12:06:13;-1.70;99.90
51619;DHT22;38518;53.164;5.430;2022-12-18T12:17:13;-1.30;99.90
51619;DHT22;38518;53.164;5.430;2022-12-18T12:22:49;-1.60;99.90
51619;DHT22;38518;53.164;5.430;2022-12-18T12:31:02;-1.60;99.60
51619;DHT22;38518;53.164;5.430;2022-12-18T12:33:39;0.00;99.90
51619;DHT22;38518;53.164;5.430;2022-12-18T12:37:07;-0.80;99.90
51619;DHT22;38518;53.164;5.430;2022-12-18T12:39:11;-0.40;99.90
51619;DHT22;38518;53.164;5.430;2022-12-18T12:41:41;-1.60;96.00
51619;DHT22;38518;53.164;5.430;2022-12-18T12:44:50;0.30;99.90
51619;DHT22;38518;53.164;5.430;2022-12-18T12:47:27;0.50;99.10
51619;DHT22;38518;53.164;5.430;2022-12-18T12:49:54;-0.20;97.20
51619;DHT22;38518;53.164;5.430;2022-12-18T12:57:33;-1.50;98.40
51619;DHT22;38518;53.164;5.430;2022-12-18T13:00:11;-1.50;97.90
51619;DHT22;38518;53.164;5.430;2022-12-18T13:02:50;-1.40;94.10
51619;DHT22;38518;53.164;5.430;2022-12-18T13:05:59;-1.20;93.50
51619;DHT22;38518;53.164;5.430;2022-12-18T13:08:28;-0.60;94.60
51619;DHT22;38518;53.164;5.430;2022-12-18T13:10:56;0.00;99.90
51619;DHT22;38518;53.164;5.430;2022-12-18T13:13:50;0.70;98.40
51619;DHT22;38518;53.164;5.430;2022-12-18T13:16:24;0.60;99.60
51619;DHT22;38518;53.164;5.430;2022-12-18T13:18:54;-1.40;99.70
51619;DHT22;38518;53.164;5.430;2022-12-18T13:21:33;0.00;99.90
51619;DHT22;38518;53.164;5.430;2022-12-18T13:24:27;-0.50;99.90
51619;DHT22;38518;53.164;5.430;2022-12-18T13:26:53;-1.40;99.90
51619;DHT22;38518;53.164;5.430;2022-12-18T13:29:42;0.50;99.90
51619;DHT22;38518;53.164;5.430;2022-12-18T13:32:22;0.40;99.90
51619;DHT22;38518;53.164;5.430;2022-12-18T13:35:03;0.10;99.90
51619;DHT22;38518;53.164;5.430;2022-12-18T13:37:43;0.10;99.90
51619;DHT22;38518;53.164;5.430;2022-12-18T13:43:26;-2.50;96.80
51619;DHT22;38518;53.164;5.430;2022-12-18T13:46:06;-0.90;98.30
51619;DHT22;38518;53.164;5.430;2022-12-18T13:48:50;-1.60;97.20
51619;DHT22;38518;53.164;5.430;2022-12-18T13:51:17;-0.10;99.90
51619;DHT22;38518;53.164;5.430;2022-12-18T13:53:59;0.30;99.90
51619;DHT22;38518;53.164;5.430;2022-12-18T13:56:31;-0.50;99.90
51619;DHT22;38518;53.164;5.430;2022-12-18T14:01:45;-1.10;98.40
51619;DHT22;38518;53.164;5.430;2022-12-18T14:04:29;-0.30;98.70
51619;DHT22;38518;53.164;5.430;2022-12-18T14:07:05;-3.20;99.40
51619;DHT22;38518;53.164;5.430;2022-12-18T14:09:36;-1.50;98.00
51619;DHT22;38518;53.164;5.430;2022-12-18T14:12:02;-1.60;99.90
51619;DHT22;38518;53.164;5.430;2022-12-18T14:14:49;-1.60;99.90
51619;DHT22;38518;53.164;5.430;2022-12-18T14:17:16;-1.60;98.50
51619;DHT22;38518;53.164;5.430;2022-12-18T14:19:48;-1.60;99.90
51619;DHT22;38518;53.164;5.430;2022-12-18T14:22:21;-1.50;99.90
51619;DHT22;38518;53.164;5.430;2022-12-18T14:24:47;-1.60;99.90
51619;DHT22;38518;53.164;5.430;2022-12-18T14:27:29;-0.40;99.90
51619;DHT22;38518;53.164;5.430;2022-12-18T14:29:55;-1.20;99.90
51619;DHT22;38518;53.164;5.430;2022-12-18T14:32:21;-0.70;99.90
51619;DHT22;38518;53.164;5.430;2022-12-18T14:34:53;-1.60;99.90
51619;DHT22;38518;53.164;5.430;2022-12-18T14:37:26;0.20;99.90
51619;DHT22;38518;53.164;5.430;2022-12-18T14:42:24;-1.60;99.90
51619;DHT22;38518;53.164;5.430;2022-12-18T14:47:59;-1.70;99.90
51619;DHT22;38518;53.164;5.430;2022-12-18T14:50:26;-0.20;99.90
51619;DHT22;38518;53.164;5.430;2022-12-18T14:52:52;-0.30;99.90
51619;DHT22;38518;53.164;5.430;2022-12-18T14:55:19;-0.40;99.90
51619;DHT22;38518;53.164;5.430;2022-12-18T14:57:50;-0.20;99.90
51619;DHT22;38518;53.164;5.430;2022-12-18T15:00:18;0.50;99.90
51619;DHT22;38518;53.164;5.430;2022-12-18T15:02:53;-1.70;99.90
51619;DHT22;38518;53.164;5.430;2022-12-18T15:05:20;-0.80;99.90
51619;DHT22;38518;53.164;5.430;2022-12-18T15:07:52;-1.10;99.90
51619;DHT22;38518;53.164;5.430;2022-12-18T15:10:20;0.00;99.90
51619;DHT22;38518;53.164;5.430;2022-12-18T15:13:07;-1.50;99.90
51619;DHT22;38518;53.164;5.430;2022-12-18T15:23:21;-1.70;99.90
51619;DHT22;38518;53.164;5.430;2022-12-18T15:26:05;-1.70;99.90
51619;DHT22;38518;53.164;5.430;2022-12-18T15:31:02;-1.80;99.90
51619;DHT22;38518;53.164;5.430;2022-12-18T15:33:34;-1.90;99.90
51619;DHT22;38518;53.164;5.430;2022-12-18T15:36:07;-0.10;99.90
51619;DHT22;38518;53.164;5.430;2022-12-18T15:38:34;-1.70;99.90
51619;DHT22;38518;53.164;5.430;2022-12-18T15:41:00;-1.70;99.90
51619;DHT22;38518;53.164;5.430;2022-12-18T15:43:26;-0.50;99.90
51619;DHT22;38518;53.164;5.430;2022-12-18T15:46:05;-1.70;99.90
51619;DHT22;38518;53.164;5.430;2022-12-18T15:48:33;-1.80;99.90
51619;DHT22;38518;53.164;5.430;2022-12-18T15:51:00;-1.70;99.90
51619;DHT22;38518;53.164;5.430;2022-12-18T15:53:30;-1.20;99.90
51619;DHT22;38518;53.164;5.430;2022-12-18T15:55:57;-0.10;99.90
51619;DHT22;38518;53.164;5.430;2022-12-18T15:58:41;-0.40;99.90
51619;DHT22;38518;53.164;5.430;2022-12-18T16:01:09;-0.20;99.90
51619;DHT22;38518;53.164;5.430;2022-12-18T16:03:35;-0.40;99.90
51619;DHT22;38518;53.164;5.430;2022-12-18T16:06:00;-1.60;99.90
51619;DHT22;38518;53.164;5.430;2022-12-18T16:08:28;0.10;99.90
51619;DHT22;38518;53.164;5.430;2022-12-18T16:10:56;0.00;99.90
51619;DHT22;38518;53.164;5.430;2022-12-18T16:13:21;0.30;99.90
51619;DHT22;38518;53.164;5.430;2022-12-18T16:15:48;-1.30;99.90
51619;DHT22;38518;53.164;5.430;2022-12-18T16:18:14;-0.50;99.90
51619;DHT22;38518;53.164;5.430;2022-12-18T16:20:40;0.40;99.90
51619;DHT22;38518;53.164;5.430;2022-12-18T16:23:06;-0.10;99.90
51619;DHT22;38518;53.164;5.430;2022-12-18T16:25:32;-0.70;99.90
51619;DHT22;38518;53.164;5.430;2022-12-18T16:27:57;-0.80;99.90
51619;DHT22;38518;53.164;5.430;2022-12-18T16:30:26;0.30;99.90
51619;DHT22;38518;53.164;5.430;2022-12-18T16:32:53;-0.20;99.90
51619;DHT22;38518;53.164;5.430;2022-12-18T16:35:20;0.30;99.90
51619;DHT22;38518;53.164;5.430;2022-12-18T16:37:46;-0.50;99.90
51619;DHT22;38518;53.164;5.430;2022-12-18T16:40:14;-1.40;99.90
51619;DHT22;38518;53.164;5.430;2022-12-18T16:42:41;0.80;99.90
51619;DHT22;38518;53.164;5.430;2022-12-18T16:45:11;0.40;99.90
51619;DHT22;38518;53.164;5.430;2022-12-18T16:47:37;1.00;99.90
51619;DHT22;38518;53.164;5.430;2022-12-18T16:50:04;0.40;99.90
51619;DHT22;38518;53.164;5.430;2022-12-18T16:52:30;-1.30;99.90
51619;DHT22;38518;53.164;5.430;2022-12-18T16:54:56;-1.30;99.90
51619;DHT22;38518;53.164;5.430;2022-12-18T16:57:22;0.00;99.90
51619;DHT22;38518;53.164;5.430;2022-12-18T16:59:47;-1.00;99.90
51619;DHT22;38518;53.164;5.430;2022-12-18T17:02:19;-0.20;99.90
51619;DHT22;38518;53.164;5.430;2022-12-18T17:04:45;0.60;93.20
51619;DHT22;38518;53.164;5.430;2022-12-18T17:07:12;-0.50;94.60
51619;DHT22;38518;53.164;5.430;2022-12-18T17:09:38;0.00;92.30
51619;DHT22;38518;53.164;5.430;2022-12-18T17:12:04;-0.50;95.40
51619;DHT22;38518;53.164;5.430;2022-12-18T17:16:55;-1.10;91.80
51619;DHT22;38518;53.164;5.430;2022-12-18T17:19:22;0.70;97.00
51619;DHT22;38518;53.164;5.430;2022-12-18T17:21:49;-1.70;93.80
51619;DHT22;38518;53.164;5.430;2022-12-18T17:24:16;-1.10;91.20
51619;DHT22;38518;53.164;5.430;2022-12-18T17:26:42;-1.20;92.80
51619;DHT22;38518;53.164;5.430;2022-12-18T17:29:13;-1.20;97.30
51619;DHT22;38518;53.164;5.430;2022-12-18T17:31:39;-1.20;93.40
51619;DHT22;38518;53.164;5.430;2022-12-18T17:34:04;-1.00;97.30
51619;DHT22;38518;53.164;5.430;2022-12-18T17:36:30;-1.10;91.80
51619;DHT22;38518;53.164;5.430;2022-12-18T17:38:58;-1.40;92.50
51619;DHT22;38518;53.164;5.430;2022-12-18T17:41:25;1.00;97.30
51619;DHT22;38518;53.164;5.430;2022-12-18T17:43:52;1.70;98.70
51619;DHT22;38518;53.164;5.430;2022-12-18T17:46:18;1.30;98.10
51619;DHT22;38518;53.164;5.430;2022-12-18T17:48:44;-1.20;99.80
51619;DHT22;38518;53.164;5.430;2022-12-18T17:51:10;-1.10;95.10
51619;DHT22;38518;53.164;5.430;2022-12-18T17:53:37;1.50;99.90
51619;DHT22;38518;53.164;5.430;2022-12-18T17:56:06;-0.50;98.40